createdAt,value
2023-04-15T00:01:37.330Z,99945.97
2023-04-15T00:04:04.821Z,99949.66
2023-04-15T00:06:31.936Z,99954.97
2023-04-15T00:08:59.013Z,99956.78
2023-04-15T00:11:26.094Z,99960.53
2023-04-15T00:13:53.174Z,99958.72
2023-04-15T00:16:21.485Z,99970.19
2023-04-15T00:18:48.340Z,99968.78
2023-04-15T00:21:15.270Z,99983.31
2023-04-15T00:23:42.056Z,99983.94
2023-04-15T00:26:08.960Z,99977.78
2023-04-15T00:28:35.833Z,99987.41
2023-04-15T00:31:03.651Z,99987.81
2023-04-15T00:33:30.523Z,99993.38
2023-04-15T00:35:57.758Z,99998.31
2023-04-15T00:38:28.258Z,100003.22
2023-04-15T00:40:56.530Z,99999.72
2023-04-15T00:43:23.524Z,100000.72
2023-04-15T00:45:52.336Z,100005.41
2023-04-15T00:48:19.214Z,100002.31
2023-04-15T00:50:46.170Z,100002.56
2023-04-15T00:53:12.968Z,100007.63
2023-04-15T00:55:40.173Z,100006.84
2023-04-15T00:58:07.235Z,100012.50
2023-04-15T01:00:36.020Z,100018.75
2023-04-15T01:03:03.324Z,100019.34
2023-04-15T01:05:31.340Z,100022.63
2023-04-15T01:07:58.345Z,100027.38
2023-04-15T01:10:25.197Z,100032.72
2023-04-15T01:12:52.531Z,100036.19
2023-04-15T01:15:19.466Z,100040.53
2023-04-15T01:17:46.430Z,100042.38
2023-04-15T01:20:13.453Z,100042.41
2023-04-15T01:22:40.754Z,100041.50
2023-04-15T01:25:13.482Z,100052.22
2023-04-15T01:27:42.304Z,100052.47
2023-04-15T01:30:10.619Z,100055.97
2023-04-15T01:32:38.080Z,100058.41
2023-04-15T01:35:05.173Z,100054.13
2023-04-15T01:37:32.568Z,100058.59
2023-04-15T01:39:59.873Z,100058.00
2023-04-15T01:42:27.824Z,100069.72
2023-04-15T01:44:54.923Z,100067.91
2023-04-15T01:47:21.871Z,100070.72
2023-04-15T01:49:48.816Z,100080.84
2023-04-15T01:52:15.821Z,100077.72
2023-04-15T01:54:42.661Z,100073.81
2023-04-15T01:57:10.020Z,100085.59
2023-04-15T01:59:37.346Z,100088.88
2023-04-15T02:02:04.752Z,100092.53
2023-04-15T02:04:31.846Z,100095.03
2023-04-15T02:07:00.850Z,100093.59
2023-04-15T02:09:28.034Z,100099.78
2023-04-15T02:11:54.984Z,100100.38
2023-04-15T02:14:22.267Z,100103.66
2023-04-15T02:16:49.446Z,100107.75
2023-04-15T02:19:16.409Z,100110.22
2023-04-15T02:21:43.294Z,100110.84
2023-04-15T02:24:10.383Z,100111.06
2023-04-15T02:26:37.178Z,100119.69
2023-04-15T02:29:04.176Z,100127.69
2023-04-15T02:31:34.210Z,100125.03
2023-04-15T02:34:03.141Z,100122.53
2023-04-15T02:36:31.756Z,100126.00
2023-04-15T02:38:58.790Z,100124.53
2023-04-15T02:41:28.589Z,100129.31
2023-04-15T02:43:55.923Z,100134.25
2023-04-15T02:46:23.237Z,100137.56
2023-04-15T02:48:50.746Z,100132.53
2023-04-15T02:51:20.295Z,100127.44
2023-04-15T02:53:48.690Z,100132.13
2023-04-15T02:56:17.117Z,100129.88
2023-04-15T02:58:45.235Z,100137.94
2023-04-15T03:01:12.467Z,100139.59
2023-04-15T03:03:41.071Z,100145.69
2023-04-15T03:06:09.068Z,100157.41
2023-04-15T03:08:37.284Z,100163.50
2023-04-15T03:11:04.800Z,100163.72
2023-04-15T03:13:32.943Z,100168.56
2023-04-15T03:16:04.884Z,100185.53
2023-04-15T03:18:32.797Z,100182.00
2023-04-15T03:21:02.900Z,100180.88
2023-04-15T03:23:33.330Z,100197.66
2023-04-15T03:26:02.868Z,100200.44
2023-04-15T03:28:31.435Z,100200.25
2023-04-15T03:30:59.631Z,100214.25
2023-04-15T03:33:26.546Z,100223.28
2023-04-15T03:35:53.683Z,100220.97
2023-04-15T03:38:20.729Z,100227.28
2023-04-15T03:40:47.700Z,100240.31
2023-04-15T03:43:14.573Z,100232.91
2023-04-15T03:45:41.415Z,100231.06
2023-04-15T03:48:17.207Z,100231.38
2023-04-15T03:50:44.864Z,100231.78
2023-04-15T03:53:11.630Z,100235.28
2023-04-15T03:55:38.478Z,100241.97
2023-04-15T03:58:05.236Z,100246.53
2023-04-15T04:00:32.202Z,100246.53
2023-04-15T04:02:59.164Z,100242.59
2023-04-15T04:05:26.416Z,100258.59
2023-04-15T04:07:53.206Z,100254.34
2023-04-15T04:10:20.223Z,100248.66
2023-04-15T04:12:47.120Z,100256.41
2023-04-15T04:15:13.950Z,100265.19
2023-04-15T04:17:40.918Z,100265.56
2023-04-15T04:20:08.467Z,100272.50
2023-04-15T04:22:41.827Z,100271.53
2023-04-15T04:25:10.306Z,100276.47
2023-04-15T04:27:37.284Z,100279.53
2023-04-15T04:30:05.778Z,100293.38
2023-04-15T04:32:32.665Z,100297.56
2023-04-15T04:34:59.511Z,100304.59
2023-04-15T04:37:26.676Z,100304.44
2023-04-15T04:39:53.555Z,100307.47
2023-04-15T04:42:22.775Z,100300.97
2023-04-15T04:44:50.081Z,100306.25
2023-04-15T04:47:17.077Z,100305.41
2023-04-15T04:49:43.944Z,100308.00
2023-04-15T04:52:10.732Z,100312.56
2023-04-15T04:54:37.704Z,100314.44
2023-04-15T04:57:04.483Z,100304.28
2023-04-15T04:59:31.698Z,100306.84
2023-04-15T05:01:58.615Z,100313.72
2023-04-15T05:04:26.302Z,100316.38
2023-04-15T05:06:53.111Z,100316.84
2023-04-15T05:09:20.190Z,100326.25
2023-04-15T05:11:46.954Z,100322.00
2023-04-15T05:14:13.776Z,100330.56
2023-04-15T05:16:40.582Z,100331.56
2023-04-15T05:19:07.949Z,100334.97
2023-04-15T05:21:34.772Z,100345.75
2023-04-15T05:24:01.631Z,100346.88
2023-04-15T05:26:28.449Z,100353.72
2023-04-15T05:28:55.315Z,100357.91
2023-04-15T05:31:22.154Z,100352.41
2023-04-15T05:33:49.139Z,100355.19
2023-04-15T05:36:16.201Z,100358.91
2023-04-15T05:38:43.099Z,100366.72
2023-04-15T05:41:09.857Z,100372.84
2023-04-15T05:43:36.713Z,100378.66
2023-04-15T05:46:03.501Z,100377.09
2023-04-15T05:48:30.702Z,100384.44
2023-04-15T05:50:57.579Z,100378.72
2023-04-15T05:53:24.447Z,100386.47
2023-04-15T05:55:51.658Z,100389.66
2023-04-15T05:58:18.457Z,100393.81
2023-04-15T06:00:46.290Z,100388.69
2023-04-15T06:03:13.400Z,100399.03
2023-04-15T06:05:40.807Z,100390.78
2023-04-15T06:08:08.459Z,100400.41
2023-04-15T06:10:36.867Z,100403.47
2023-04-15T06:13:04.405Z,100395.97
2023-04-15T06:15:31.803Z,100401.50
2023-04-15T06:17:58.796Z,100406.28
2023-04-15T06:20:25.771Z,100413.81
2023-04-15T06:22:52.902Z,100416.75
2023-04-15T06:25:19.998Z,100422.91
2023-04-15T06:27:46.779Z,100432.25
2023-04-15T06:30:13.593Z,100431.72
2023-04-15T06:32:40.710Z,100443.22
2023-04-15T06:35:07.765Z,100438.38
2023-04-15T06:37:34.608Z,100442.63
2023-04-15T06:40:01.345Z,100448.22
2023-04-15T06:42:28.271Z,100446.38
2023-04-15T06:44:55.084Z,100442.25
2023-04-15T06:47:21.896Z,100449.72
2023-04-15T06:49:48.633Z,100458.03
2023-04-15T06:52:16.793Z,100455.34
2023-04-15T06:54:43.690Z,100459.53
2023-04-15T06:57:10.578Z,100456.38
2023-04-15T06:59:37.391Z,100461.34
2023-04-15T07:02:04.987Z,100468.88
2023-04-15T07:04:32.877Z,100476.56
2023-04-15T07:07:02.647Z,100478.78
2023-04-15T07:09:29.890Z,100478.94
2023-04-15T07:11:56.690Z,100484.75
2023-04-15T07:14:26.143Z,100492.19
2023-04-15T07:16:53.002Z,100497.97
2023-04-15T07:19:19.988Z,100501.06
2023-04-15T07:21:47.729Z,100504.22
2023-04-15T07:24:18.171Z,100511.69
2023-04-15T07:26:46.234Z,100516.91
2023-04-15T07:29:13.032Z,100532.13
2023-04-15T07:31:40.840Z,100531.88
2023-04-15T07:34:07.824Z,100525.97
2023-04-15T07:36:35.456Z,100531.84
2023-04-15T07:39:04.242Z,100539.31
2023-04-15T07:41:31.701Z,100544.81
2023-04-15T07:43:58.464Z,100548.91
2023-04-15T07:46:27.448Z,100544.72
2023-04-15T07:48:54.352Z,100549.75
2023-04-15T07:51:21.338Z,100554.91
2023-04-15T07:53:49.536Z,100561.31
2023-04-15T07:56:16.426Z,100562.56
2023-04-15T07:58:43.714Z,100561.13
2023-04-15T08:01:10.560Z,100558.66
2023-04-15T08:03:37.762Z,100561.56
2023-04-15T08:06:05.736Z,100569.13
2023-04-15T08:08:32.789Z,100573.16
2023-04-15T08:10:59.745Z,100578.25
2023-04-15T08:13:27.225Z,100573.94
2023-04-15T08:16:23.539Z,100570.13
2023-04-15T08:18:52.861Z,100574.53
2023-04-15T08:21:20.214Z,100576.75
2023-04-15T08:23:48.533Z,100578.16
2023-04-15T08:26:15.343Z,100586.44
2023-04-15T08:28:42.713Z,100588.81
2023-04-15T08:31:09.804Z,100603.69
2023-04-15T08:33:37.009Z,100602.13
2023-04-15T08:36:04.585Z,100600.94
2023-04-15T08:38:31.498Z,100601.66
2023-04-15T08:40:59.008Z,100604.75
2023-04-15T08:43:28.974Z,100601.88
2023-04-15T08:45:56.003Z,100597.44
2023-04-15T08:48:24.710Z,100613.72
2023-04-15T08:50:51.697Z,100609.91
2023-04-15T08:53:18.832Z,100612.47
2023-04-15T08:55:47.037Z,100608.75
2023-04-15T08:58:14.575Z,100614.63
2023-04-15T09:00:42.723Z,100611.53
2023-04-15T09:03:09.867Z,100615.72
2023-04-15T09:05:37.500Z,100628.09
2023-04-15T09:08:05.587Z,100628.69
2023-04-15T09:10:34.350Z,100626.09
2023-04-15T09:13:02.187Z,100626.34
2023-04-15T09:15:29.992Z,100620.41
2023-04-15T09:17:57.177Z,100622.69
2023-04-15T09:20:24.265Z,100620.84
2023-04-15T09:22:52.245Z,100620.84
2023-04-15T09:25:22.035Z,100625.47
2023-04-15T09:27:59.230Z,100626.97
2023-04-15T09:30:26.626Z,100623.66
2023-04-15T09:32:58.487Z,100615.84
2023-04-15T09:35:27.668Z,100636.66
2023-04-15T09:38:05.498Z,100638.94
2023-04-15T09:40:33.073Z,100641.00
2023-04-15T09:43:00.047Z,100639.75
2023-04-15T09:45:29.558Z,100637.09
2023-04-15T09:47:59.233Z,100644.72
2023-04-15T09:50:32.198Z,100653.59
2023-04-15T09:52:59.704Z,100657.69
2023-04-15T09:55:26.656Z,100661.81
2023-04-15T09:57:53.659Z,100663.47
2023-04-15T10:00:20.474Z,100664.50
2023-04-15T10:02:48.639Z,100655.38
2023-04-15T10:05:17.958Z,100670.84
2023-04-15T10:07:45.970Z,100667.28
2023-04-15T10:10:13.632Z,100668.94
2023-04-15T10:12:41.882Z,100673.66
2023-04-15T10:15:14.903Z,100682.34
2023-04-15T10:17:44.386Z,100673.22
2023-04-15T10:20:13.095Z,100681.22
2023-04-15T10:22:41.288Z,100683.50
2023-04-15T10:25:08.548Z,100680.00
2023-04-15T10:27:36.879Z,100678.56
2023-04-15T10:30:04.175Z,100678.09
2023-04-15T10:32:31.222Z,100674.56
2023-04-15T10:34:58.252Z,100688.34
2023-04-15T10:37:38.427Z,100679.69
2023-04-15T10:40:31.772Z,100683.19
2023-04-15T10:43:01.135Z,100681.28
2023-04-15T10:45:29.166Z,100671.56
2023-04-15T10:47:57.440Z,100671.31
2023-04-15T10:50:28.855Z,100677.03
2023-04-15T10:52:56.820Z,100676.22
2023-04-15T10:55:26.028Z,100683.41
2023-04-15T10:57:54.302Z,100687.28
2023-04-15T11:00:24.915Z,100685.91
2023-04-15T11:02:59.198Z,100686.25
2023-04-15T11:05:41.779Z,100693.41
2023-04-15T11:08:12.810Z,100689.03
2023-04-15T11:10:39.538Z,100679.25
2023-04-15T11:13:17.211Z,100687.00
2023-04-15T11:15:45.429Z,100696.72
2023-04-15T11:18:23.987Z,100699.16
2023-04-15T11:20:50.863Z,100687.22
2023-04-15T11:23:44.364Z,100686.19
2023-04-15T11:26:12.590Z,100686.19
2023-04-15T11:28:43.750Z,100696.97
2023-04-15T11:31:13.527Z,100696.53
2023-04-15T11:33:59.133Z,100703.41
2023-04-15T11:36:30.246Z,100690.94
2023-04-15T11:38:58.908Z,100710.91
2023-04-15T11:41:25.904Z,100709.41
2023-04-15T11:43:52.910Z,100715.16
2023-04-15T11:46:19.806Z,100716.22
2023-04-15T11:48:47.471Z,100712.78
2023-04-15T11:51:14.592Z,100709.81
2023-04-15T11:53:47.240Z,100711.75
2023-04-15T11:56:19.187Z,100712.34
2023-04-15T11:58:46.659Z,100714.97
2023-04-15T12:01:14.096Z,100714.84
2023-04-15T12:03:43.916Z,100726.19
2023-04-15T12:06:27.901Z,100726.41
2023-04-15T12:09:02.282Z,100735.78
2023-04-15T12:11:51.510Z,100729.03
2023-04-15T12:14:31.362Z,100727.09
2023-04-15T12:17:06.009Z,100725.81
2023-04-15T12:19:38.068Z,100724.84
2023-04-15T12:22:10.228Z,100715.97
2023-04-15T12:24:37.841Z,100730.66
2023-04-15T12:27:08.493Z,100724.47
2023-04-15T12:29:36.758Z,100734.69
2023-04-15T12:32:17.645Z,100725.50
2023-04-15T12:34:50.368Z,100728.25
2023-04-15T12:37:17.788Z,100735.19
2023-04-15T12:39:46.375Z,100738.16
2023-04-15T12:42:13.209Z,100732.31
2023-04-15T12:44:40.559Z,100727.25
2023-04-15T12:47:08.417Z,100728.53
2023-04-15T12:49:35.361Z,100737.78
2023-04-15T12:52:02.891Z,100732.72
2023-04-15T12:54:31.097Z,100735.88
2023-04-15T12:56:58.560Z,100734.91
2023-04-15T12:59:25.624Z,100731.91
2023-04-15T13:01:53.557Z,100738.63
2023-04-15T13:04:21.996Z,100737.50
2023-04-15T13:06:49.054Z,100734.09
2023-04-15T13:09:16.076Z,100730.06
2023-04-15T13:11:43.419Z,100745.13
2023-04-15T13:14:13.444Z,100736.66
2023-04-15T13:16:40.917Z,100733.84
2023-04-15T13:19:08.009Z,100738.69
2023-04-15T13:21:36.166Z,100739.41
2023-04-15T13:24:04.428Z,100742.88
2023-04-15T13:26:32.207Z,100733.69
2023-04-15T13:28:59.490Z,100731.00
2023-04-15T13:31:26.458Z,100743.66
2023-04-15T13:33:53.504Z,100742.00
2023-04-15T13:36:20.703Z,100743.66
2023-04-15T13:38:50.474Z,100745.00
2023-04-15T13:41:18.216Z,100760.53
2023-04-15T13:43:44.975Z,100753.19
2023-04-15T13:46:12.506Z,100755.88
2023-04-15T13:48:39.403Z,100751.78
2023-04-15T13:51:06.464Z,100760.25
2023-04-15T13:53:38.220Z,100756.63
2023-04-15T13:56:10.393Z,100761.91
2023-04-15T13:58:37.830Z,100757.81
2023-04-15T14:01:07.023Z,100757.41
2023-04-15T14:03:37.385Z,100754.84
2023-04-15T14:06:05.770Z,100763.31
2023-04-15T14:08:33.436Z,100759.00
2023-04-15T14:11:00.677Z,100747.22
2023-04-15T14:13:27.583Z,100747.88
2023-04-15T14:15:54.425Z,100739.84
2023-04-15T14:18:21.265Z,100743.38
2023-04-15T14:20:48.023Z,100746.94
2023-04-15T14:23:14.856Z,100740.72
2023-04-15T14:25:41.779Z,100751.25
2023-04-15T14:28:08.582Z,100755.09
2023-04-15T14:30:35.811Z,100752.91
2023-04-15T14:33:02.821Z,100747.69
2023-04-15T14:35:29.840Z,100745.47
2023-04-15T14:37:56.759Z,100745.59
2023-04-15T14:40:23.856Z,100758.78
2023-04-15T14:42:50.687Z,100756.13
2023-04-15T14:45:17.994Z,100756.34
2023-04-15T14:47:45.059Z,100766.50
2023-04-15T14:50:12.165Z,100761.78
2023-04-15T14:52:39.290Z,100763.19
2023-04-15T14:55:07.546Z,100762.78
2023-04-15T14:57:34.440Z,100756.44
2023-04-15T15:00:01.337Z,100763.00
2023-04-15T15:02:38.491Z,100766.53
2023-04-15T15:05:06.869Z,100771.19
2023-04-15T15:07:33.918Z,100765.94
2023-04-15T15:10:00.918Z,100771.69
2023-04-15T15:12:27.775Z,100769.16
2023-04-15T15:14:56.006Z,100778.56
2023-04-15T15:17:22.901Z,100783.69
2023-04-15T15:19:49.820Z,100774.66
2023-04-15T15:22:17.636Z,100769.50
2023-04-15T15:24:45.882Z,100772.56
2023-04-15T15:27:12.746Z,100778.06
2023-04-15T15:29:39.773Z,100763.31
2023-04-15T15:32:06.770Z,100770.31
2023-04-15T15:34:33.535Z,100776.41
2023-04-15T15:37:00.896Z,100781.03
2023-04-15T15:39:27.856Z,100778.34
2023-04-15T15:41:55.056Z,100775.94
2023-04-15T15:44:21.896Z,100778.09
2023-04-15T15:46:50.566Z,100776.53
2023-04-15T15:49:17.477Z,100770.00
2023-04-15T15:51:45.928Z,100774.25
2023-04-15T15:54:13.100Z,100786.00
2023-04-15T15:56:39.993Z,100780.44
2023-04-15T15:59:07.003Z,100775.88
2023-04-15T16:01:33.989Z,100776.59
2023-04-15T16:04:01.300Z,100786.19
2023-04-15T16:06:28.330Z,100785.22
2023-04-15T16:08:55.214Z,100784.88
2023-04-15T16:11:21.990Z,100794.81
2023-04-15T16:13:48.798Z,100787.50
2023-04-15T16:16:15.713Z,100791.16
2023-04-15T16:18:42.532Z,100781.84
2023-04-15T16:21:09.372Z,100784.63
2023-04-15T16:23:37.242Z,100790.28
2023-04-15T16:26:04.081Z,100783.94
2023-04-15T16:28:30.830Z,100786.81
2023-04-15T16:30:57.675Z,100781.81
2023-04-15T16:33:24.504Z,100775.56
2023-04-15T16:35:51.820Z,100777.31
2023-04-15T16:38:18.631Z,100774.00
2023-04-15T16:40:45.795Z,100775.06
2023-04-15T16:43:12.582Z,100773.53
2023-04-15T16:45:39.451Z,100775.44
2023-04-15T16:48:06.488Z,100781.63
2023-04-15T16:50:33.275Z,100780.88
2023-04-15T16:53:00.082Z,100775.41
2023-04-15T16:55:27.110Z,100771.66
2023-04-15T16:58:02.742Z,100774.63
2023-04-15T17:00:31.515Z,100774.66
2023-04-15T17:02:59.349Z,100774.09
2023-04-15T17:05:29.399Z,100770.00
2023-04-15T17:07:56.299Z,100775.28
2023-04-15T17:10:23.495Z,100768.09
2023-04-15T17:12:52.242Z,100772.16
2023-04-15T17:15:19.956Z,100771.03
2023-04-15T17:17:46.865Z,100766.50
2023-04-15T17:20:13.834Z,100768.34
2023-04-15T17:22:40.748Z,100768.56
2023-04-15T17:25:08.067Z,100766.28
2023-04-15T17:27:34.904Z,100765.56
2023-04-15T17:30:02.112Z,100761.03
2023-04-15T17:32:32.037Z,100770.88
2023-04-15T17:34:58.935Z,100772.81
2023-04-15T17:37:25.830Z,100780.59
2023-04-15T17:39:52.892Z,100779.22
2023-04-15T17:42:19.732Z,100768.03
2023-04-15T17:44:46.486Z,100778.13
2023-04-15T17:47:13.242Z,100779.16
2023-04-15T17:49:40.106Z,100772.09
2023-04-15T17:52:06.837Z,100777.50
2023-04-15T17:54:33.747Z,100774.69
2023-04-15T17:57:01.453Z,100785.94
2023-04-15T17:59:28.309Z,100779.97
2023-04-15T18:01:55.542Z,100786.91
2023-04-15T18:04:25.833Z,100791.13
2023-04-15T18:06:53.356Z,100789.81
2023-04-15T18:09:20.352Z,100784.91
2023-04-15T18:11:48.469Z,100783.50
2023-04-15T18:14:26.665Z,100791.41
2023-04-15T18:16:57.923Z,100788.69
2023-04-15T18:19:25.853Z,100797.63
2023-04-15T18:21:52.766Z,100792.69
2023-04-15T18:24:19.631Z,100795.81
2023-04-15T18:26:48.361Z,100801.22
2023-04-15T18:29:15.877Z,100800.81
2023-04-15T18:31:42.851Z,100802.28
2023-04-15T18:34:09.773Z,100809.50
2023-04-15T18:36:36.620Z,100808.00
2023-04-15T18:39:04.453Z,100813.97
2023-04-15T18:41:31.465Z,100824.22
2023-04-15T18:43:58.331Z,100833.25
2023-04-15T18:46:25.149Z,100834.09
2023-04-15T18:48:52.026Z,100830.38
2023-04-15T18:51:18.913Z,100842.53
2023-04-15T18:53:45.749Z,100839.09
2023-04-15T18:56:12.535Z,100840.69
2023-04-15T18:59:27.855Z,100843.78
2023-04-15T19:01:26.577Z,100841.91
2023-04-15T19:03:53.506Z,100841.19
2023-04-15T19:06:20.564Z,100844.06
2023-04-15T19:08:47.413Z,100836.09
2023-04-15T19:11:14.292Z,100843.00
2023-04-15T19:13:41.156Z,100847.47
2023-04-15T19:16:07.969Z,100851.06
2023-04-15T19:18:34.877Z,100848.13
2023-04-15T19:21:01.826Z,100849.97
2023-04-15T19:23:28.782Z,100843.41
2023-04-15T19:25:57.201Z,100846.69
2023-04-15T19:28:24.016Z,100849.53
2023-04-15T19:30:52.442Z,100848.78
2023-04-15T19:33:19.240Z,100852.09
2023-04-15T19:35:46.740Z,100839.31
2023-04-15T19:38:13.515Z,100849.72
2023-04-15T19:40:40.348Z,100839.75
2023-04-15T19:43:07.154Z,100850.31
2023-04-15T19:45:34.324Z,100843.69
2023-04-15T19:48:01.188Z,100848.66
2023-04-15T19:50:28.375Z,100852.19
2023-04-15T19:52:55.267Z,100849.31
2023-04-15T19:55:22.024Z,100848.66
2023-04-15T19:57:48.813Z,100851.56
2023-04-15T20:00:15.808Z,100846.84
2023-04-15T20:02:42.696Z,100847.66
2023-04-15T20:05:10.186Z,100852.22
2023-04-15T20:07:37.001Z,100856.31
2023-04-15T20:10:10.723Z,100855.69
2023-04-15T20:12:50.362Z,100855.75
2023-04-15T20:15:20.832Z,100858.41
2023-04-15T20:17:47.670Z,100863.38
2023-04-15T20:20:14.596Z,100858.00
2023-04-15T20:22:41.592Z,100859.88
2023-04-15T20:25:08.921Z,100864.22
2023-04-15T20:27:35.868Z,100870.19
2023-04-15T20:30:04.826Z,100860.50
2023-04-15T20:32:35.898Z,100860.28
2023-04-15T20:35:04.384Z,100853.88
2023-04-15T20:37:33.569Z,100862.53
2023-04-15T20:40:00.861Z,100866.47
2023-04-15T20:42:27.670Z,100866.91
2023-04-15T20:44:54.554Z,100861.50
2023-04-15T20:47:21.614Z,100852.22
2023-04-15T20:49:48.605Z,100863.81
2023-04-15T20:52:15.417Z,100862.38
2023-04-15T20:54:42.283Z,100859.47
2023-04-15T20:57:09.499Z,100858.84
2023-04-15T20:59:36.368Z,100861.94
2023-04-15T21:02:03.317Z,100867.50
2023-04-15T21:04:30.237Z,100868.34
2023-04-15T21:06:57.021Z,100869.56
2023-04-15T21:09:24.932Z,100861.97
2023-04-15T21:14:21.526Z,100868.34
2023-04-15T21:16:48.351Z,100865.44
2023-04-15T21:19:15.084Z,100867.72
2023-04-15T21:21:41.924Z,100870.59
2023-04-15T21:24:08.854Z,100866.91
2023-04-15T21:26:38.734Z,100871.66
2023-04-15T21:29:07.148Z,100867.06
2023-04-15T21:31:35.742Z,100870.78
2023-04-15T21:34:02.532Z,100871.22
2023-04-15T21:36:29.465Z,100871.81
2023-04-15T21:38:56.308Z,100883.34
2023-04-15T21:41:23.142Z,100879.03
2023-04-15T21:43:50.180Z,100887.69
2023-04-15T21:46:23.006Z,100882.34
2023-04-15T21:48:55.150Z,100876.34
2023-04-15T21:51:22.017Z,100876.16
2023-04-15T21:53:48.873Z,100876.13
2023-04-15T21:56:15.966Z,100875.53
2023-04-15T21:58:43.054Z,100876.13
2023-04-15T22:01:09.900Z,100878.16
2023-04-15T22:03:37.021Z,100874.66
2023-04-15T22:06:04.279Z,100872.78
2023-04-15T22:08:44.555Z,100865.97
2023-04-15T22:11:30.552Z,100870.75
2023-04-15T22:13:58.617Z,100859.22
2023-04-15T22:16:28.692Z,100859.00
2023-04-15T22:18:56.226Z,100862.88
2023-04-15T22:21:23.404Z,100870.53
2023-04-15T22:23:51.161Z,100863.53
2023-04-15T22:26:17.958Z,100845.13
2023-04-15T22:28:45.373Z,100849.44
2023-04-15T22:31:12.147Z,100850.94
2023-04-15T22:33:39.149Z,100842.63
2023-04-15T22:36:06.331Z,100864.94
2023-04-15T22:38:33.343Z,100859.13
2023-04-15T22:41:00.169Z,100858.75
2023-04-15T22:43:27.709Z,100859.75
2023-04-15T22:45:55.133Z,100846.91
2023-04-15T22:48:22.522Z,100851.75
2023-04-15T22:50:49.504Z,100854.41
2023-04-15T22:53:17.595Z,100855.22
2023-04-15T22:55:46.660Z,100855.78
2023-04-15T22:58:14.111Z,100853.19
2023-04-15T23:00:41.193Z,100852.38
2023-04-15T23:03:08.385Z,100842.84
2023-04-15T23:05:35.341Z,100844.84
2023-04-15T23:08:02.146Z,100844.63
2023-04-15T23:10:29.572Z,100847.16
2023-04-15T23:12:56.472Z,100847.94
2023-04-15T23:15:23.483Z,100844.59
2023-04-15T23:17:50.484Z,100854.13
2023-04-15T23:20:17.362Z,100848.34
2023-04-15T23:22:44.433Z,100852.28
2023-04-15T23:25:11.267Z,100853.56
2023-04-15T23:27:38.637Z,100853.09
2023-04-15T23:30:06.325Z,100848.97
2023-04-15T23:32:33.215Z,100855.38
2023-04-15T23:35:00.043Z,100852.88
2023-04-15T23:37:26.874Z,100845.47
2023-04-15T23:39:55.805Z,100837.69
2023-04-15T23:42:24.200Z,100841.41
2023-04-15T23:44:51.182Z,100840.81
2023-04-15T23:47:18.103Z,100839.97
2023-04-15T23:49:44.897Z,100844.31
2023-04-15T23:52:11.879Z,100845.97
2023-04-15T23:54:38.725Z,100851.13
2023-04-15T23:57:05.650Z,100843.28
2023-04-15T23:59:32.369Z,100838.56
